createdAt,value
2022-11-14T00:01:26.007Z,7.40
2022-11-14T00:03:54.400Z,7.41
2022-11-14T00:06:22.357Z,7.42
2022-11-14T00:08:50.180Z,7.41
2022-11-14T00:11:18.038Z,7.40
2022-11-14T00:13:46.520Z,7.39
2022-11-14T00:16:14.389Z,7.39
2022-11-14T00:18:42.251Z,7.40
2022-11-14T00:21:10.137Z,7.40
2022-11-14T00:23:38.053Z,7.41
2022-11-14T00:26:06.014Z,7.42
2022-11-14T00:28:34.469Z,7.43
2022-11-14T00:31:02.297Z,7.42
2022-11-14T00:33:30.044Z,7.44
2022-11-14T00:35:57.925Z,7.44
2022-11-14T00:38:25.843Z,7.43
2022-11-14T00:40:53.742Z,7.44
2022-11-14T00:43:21.538Z,7.45
2022-11-14T00:45:49.358Z,7.46
2022-11-14T00:48:17.464Z,7.47
2022-11-14T00:50:45.394Z,7.49
2022-11-14T00:53:13.798Z,7.48
2022-11-14T00:55:42.846Z,7.47
2022-11-14T00:58:10.968Z,7.46
2022-11-14T01:00:39.217Z,7.44
2022-11-14T01:03:07.128Z,7.45
2022-11-14T01:05:43.570Z,7.45
2022-11-14T01:08:13.026Z,7.46
2022-11-14T01:10:47.629Z,7.44
2022-11-14T01:13:17.225Z,7.42
2022-11-14T01:15:47.956Z,7.43
2022-11-14T01:18:20.085Z,7.44
2022-11-14T01:20:49.010Z,7.45
2022-11-14T01:23:17.143Z,7.47
2022-11-14T01:25:45.504Z,7.48
2022-11-14T01:28:18.042Z,7.50
2022-11-14T01:30:46.167Z,7.51
2022-11-14T01:33:13.947Z,7.54
2022-11-14T01:35:41.910Z,7.55
2022-11-14T01:38:13.391Z,7.51
2022-11-14T01:40:43.783Z,7.50
2022-11-14T01:43:11.560Z,7.50
2022-11-14T01:45:57.800Z,7.50
2022-11-14T01:48:37.182Z,7.50
2022-11-14T01:51:38.373Z,7.51
2022-11-14T01:54:11.333Z,7.49
2022-11-14T01:56:44.377Z,7.49
2022-11-14T01:59:18.513Z,7.50
2022-11-14T02:01:50.311Z,7.51
2022-11-14T02:04:30.862Z,7.50
2022-11-14T02:07:01.861Z,7.50
2022-11-14T02:09:33.031Z,7.50
2022-11-14T02:12:02.975Z,7.49
2022-11-14T02:14:31.259Z,7.50
2022-11-14T02:17:22.727Z,7.52
2022-11-14T02:20:11.951Z,7.53
2022-11-14T02:22:42.308Z,7.51
2022-11-14T02:25:13.471Z,7.49
2022-11-14T02:27:41.697Z,7.49
2022-11-14T02:30:15.148Z,7.49
2022-11-14T02:33:10.583Z,7.49
2022-11-14T02:35:30.877Z,7.48
2022-11-14T02:37:58.796Z,7.46
2022-11-14T02:40:26.597Z,7.46
2022-11-14T02:42:54.635Z,7.45
2022-11-14T02:45:22.458Z,7.43
2022-11-14T02:47:50.294Z,7.39
2022-11-14T02:50:18.453Z,7.39
2022-11-14T02:52:46.366Z,7.41
2022-11-14T02:55:14.187Z,7.43
2022-11-14T02:57:41.960Z,7.44
2022-11-14T03:00:14.835Z,7.45
2022-11-14T03:02:43.199Z,7.46
2022-11-14T03:05:11.088Z,7.46
2022-11-14T03:07:38.972Z,7.46
2022-11-14T03:10:08.092Z,7.46
2022-11-14T03:12:35.848Z,7.43
2022-11-14T03:15:07.715Z,7.37
2022-11-14T03:17:35.637Z,7.32
2022-11-14T03:20:04.121Z,7.31
2022-11-14T03:22:31.902Z,7.31
2022-11-14T03:24:59.666Z,7.31
2022-11-14T03:27:27.507Z,7.30
2022-11-14T03:29:55.370Z,7.29
2022-11-14T03:32:23.303Z,7.28
2022-11-14T03:34:51.165Z,7.28
2022-11-14T03:37:19.063Z,7.27
2022-11-14T03:39:46.884Z,7.25
2022-11-14T03:42:14.816Z,7.23
2022-11-14T03:44:42.577Z,7.23
2022-11-14T03:47:10.560Z,7.22
2022-11-14T03:49:38.362Z,7.21
2022-11-14T03:52:06.221Z,7.21
2022-11-14T03:54:34.040Z,7.19
2022-11-14T03:57:01.835Z,7.19
2022-11-14T03:59:29.786Z,7.19
2022-11-14T04:01:57.624Z,7.18
2022-11-14T04:04:25.643Z,7.14
2022-11-14T04:06:53.511Z,7.12
2022-11-14T04:09:21.411Z,7.10
2022-11-14T04:11:49.191Z,7.07
2022-11-14T04:14:16.995Z,7.06
2022-11-14T04:16:44.749Z,7.05
2022-11-14T04:19:12.547Z,7.04
2022-11-14T04:21:40.405Z,7.03
2022-11-14T04:24:11.020Z,7.02
2022-11-14T04:26:39.219Z,7.05
2022-11-14T04:29:07.089Z,7.06
2022-11-14T04:31:34.901Z,7.07
2022-11-14T04:34:02.737Z,7.08
2022-11-14T04:36:30.558Z,7.10
2022-11-14T04:38:58.343Z,7.13
2022-11-14T04:41:26.218Z,7.13
2022-11-14T04:43:54.019Z,7.14
2022-11-14T04:46:22.322Z,7.15
2022-11-14T04:48:50.104Z,7.16
2022-11-14T04:51:18.059Z,7.18
2022-11-14T04:53:45.892Z,7.19
2022-11-14T04:56:13.714Z,7.20
2022-11-14T04:58:41.500Z,7.20
2022-11-14T05:01:11.038Z,7.21
2022-11-14T05:03:38.930Z,7.22
2022-11-14T05:06:07.378Z,7.24
2022-11-14T05:08:35.409Z,7.26
2022-11-14T05:11:03.200Z,7.27
2022-11-14T05:13:31.163Z,7.27
2022-11-14T05:16:00.370Z,7.27
2022-11-14T05:18:28.683Z,7.28
2022-11-14T05:20:59.915Z,7.28
2022-11-14T05:23:28.338Z,7.28
2022-11-14T05:26:06.053Z,7.25
2022-11-14T05:28:34.510Z,7.24
2022-11-14T05:31:09.378Z,7.24
2022-11-14T05:33:37.331Z,7.24
2022-11-14T05:36:08.537Z,7.25
2022-11-14T05:38:37.149Z,7.25
2022-11-14T05:41:14.548Z,7.25
2022-11-14T05:43:43.229Z,7.26
2022-11-14T05:46:13.971Z,7.28
2022-11-14T05:48:42.178Z,7.29
2022-11-14T05:51:12.597Z,7.30
2022-11-14T05:53:41.602Z,7.29
2022-11-14T05:56:13.405Z,7.24
2022-11-14T05:58:41.502Z,7.21
2022-11-14T06:01:13.124Z,7.19
2022-11-14T06:03:44.311Z,7.19
2022-11-14T06:06:20.131Z,7.19
2022-11-14T06:08:48.751Z,7.19
2022-11-14T06:11:20.047Z,7.19
2022-11-14T06:13:48.619Z,7.19
2022-11-14T06:16:19.019Z,7.20
2022-11-14T06:18:47.723Z,7.19
2022-11-14T06:21:22.074Z,7.20
2022-11-14T06:23:50.123Z,7.20
2022-11-14T06:26:31.683Z,7.20
2022-11-14T06:29:00.678Z,7.20
2022-11-14T06:31:28.747Z,7.23
2022-11-14T06:33:57.061Z,7.25
2022-11-14T06:36:25.080Z,7.24
2022-11-14T06:38:53.000Z,7.25
2022-11-14T06:41:22.115Z,7.23
2022-11-14T06:43:53.004Z,7.18
2022-11-14T06:46:22.667Z,7.14
2022-11-14T06:48:52.509Z,7.12
2022-11-14T06:51:20.354Z,7.10
2022-11-14T06:53:48.271Z,7.12
2022-11-14T06:56:18.161Z,7.13
2022-11-14T06:58:48.628Z,7.15
2022-11-14T07:01:19.416Z,7.17
2022-11-14T07:03:47.892Z,7.17
2022-11-14T07:06:19.276Z,7.19
2022-11-14T07:08:47.331Z,7.22
2022-11-14T07:11:25.881Z,7.24
2022-11-14T07:14:01.976Z,7.23
2022-11-14T07:16:35.613Z,7.23
2022-11-14T07:19:06.222Z,7.24
2022-11-14T07:21:35.126Z,7.24
2022-11-14T07:24:03.289Z,7.24
2022-11-14T07:26:32.091Z,7.25
2022-11-14T07:29:02.448Z,7.26
2022-11-14T07:31:30.946Z,7.29
2022-11-14T07:33:58.855Z,7.31
2022-11-14T07:36:26.623Z,7.34
2022-11-14T07:38:54.656Z,7.37
2022-11-14T07:41:22.448Z,7.42
2022-11-14T07:43:50.223Z,7.46
2022-11-14T07:46:18.649Z,7.51
2022-11-14T07:48:46.471Z,7.54
2022-11-14T07:51:19.796Z,7.56
2022-11-14T07:53:48.256Z,7.56
2022-11-14T07:56:17.345Z,7.56
2022-11-14T07:58:45.947Z,7.56
2022-11-14T08:01:14.833Z,7.55
2022-11-14T08:03:45.971Z,7.54
2022-11-14T08:06:16.047Z,7.53
2022-11-14T08:08:43.959Z,7.52
2022-11-14T08:11:12.309Z,7.53
2022-11-14T08:13:40.273Z,7.52
2022-11-14T08:16:13.526Z,7.51
2022-11-14T08:18:42.067Z,7.49
2022-11-14T08:21:09.918Z,7.50
2022-11-14T08:23:38.823Z,7.51
2022-11-14T08:26:06.831Z,7.50
2022-11-14T08:28:34.857Z,7.49
2022-11-14T08:31:04.551Z,7.49
2022-11-14T08:33:32.516Z,7.51
2022-11-14T08:36:05.625Z,7.52
2022-11-14T08:38:34.796Z,7.55
2022-11-14T08:41:03.744Z,7.57
2022-11-14T08:43:32.207Z,7.59
2022-11-14T08:46:02.742Z,7.62
2022-11-14T08:48:31.796Z,7.65
2022-11-14T08:51:07.382Z,7.68
2022-11-14T08:53:35.426Z,7.71
2022-11-14T08:56:03.687Z,7.73
2022-11-14T08:58:33.012Z,7.76
2022-11-14T09:01:07.107Z,7.80
2022-11-14T09:03:35.087Z,7.84
2022-11-14T09:06:03.503Z,7.89
2022-11-14T09:08:32.062Z,7.93
2022-11-14T09:11:05.226Z,7.96
2022-11-14T09:13:34.850Z,7.96
2022-11-14T09:16:03.010Z,7.98
2022-11-14T09:18:31.720Z,8.00
2022-11-14T09:21:06.641Z,8.04
2022-11-14T09:23:35.821Z,8.06
2022-11-14T09:26:08.669Z,8.07
2022-11-14T09:28:37.569Z,8.07
2022-11-14T09:31:09.001Z,8.10
2022-11-14T09:33:36.935Z,8.12
2022-11-14T09:36:08.293Z,8.08
2022-11-14T09:38:38.751Z,8.09
2022-11-14T09:42:16.941Z,8.12
2022-11-14T09:45:02.316Z,8.18
2022-11-14T09:47:59.928Z,8.23
2022-11-14T09:50:33.513Z,8.30
2022-11-14T09:53:33.960Z,8.34
2022-11-14T09:56:01.905Z,8.40
2022-11-14T09:58:29.928Z,8.42
2022-11-14T10:01:09.638Z,8.45
2022-11-14T10:03:58.644Z,8.49
2022-11-14T10:06:33.716Z,8.53
2022-11-14T10:09:19.874Z,8.56
2022-11-14T10:11:55.617Z,8.60
2022-11-14T10:14:53.657Z,8.64
2022-11-14T10:17:51.910Z,8.67
2022-11-14T10:20:54.676Z,8.70
2022-11-14T10:23:37.272Z,8.75
2022-11-14T10:26:30.272Z,8.80
2022-11-14T10:29:04.182Z,8.88
2022-11-14T10:31:54.275Z,8.90
2022-11-14T10:34:42.873Z,8.95
2022-11-14T10:37:28.965Z,9.01
2022-11-14T10:40:14.397Z,9.09
2022-11-14T10:42:47.414Z,9.19
2022-11-14T10:45:25.312Z,9.30
2022-11-14T10:48:01.546Z,9.38
2022-11-14T10:50:59.720Z,9.44
2022-11-14T10:53:53.723Z,9.52
2022-11-14T10:56:22.115Z,9.59
2022-11-14T10:58:50.442Z,9.65
2022-11-14T11:01:35.967Z,9.69
2022-11-14T11:04:30.871Z,9.76
2022-11-14T11:07:42.744Z,9.83
2022-11-14T11:10:41.954Z,9.91
2022-11-14T11:13:15.731Z,10.02
2022-11-14T11:15:58.459Z,10.11
2022-11-14T11:18:35.685Z,10.18
2022-11-14T11:21:15.293Z,10.26
2022-11-14T11:23:53.364Z,10.37
2022-11-14T11:26:28.722Z,10.47
2022-11-14T11:29:06.537Z,10.58
2022-11-14T11:31:56.025Z,10.77
2022-11-14T11:34:34.122Z,10.98
2022-11-14T11:37:16.229Z,11.14
2022-11-14T11:39:57.716Z,11.26
2022-11-14T11:42:58.793Z,11.34
2022-11-14T11:45:19.819Z,11.42
2022-11-14T11:47:58.147Z,11.55
2022-11-14T11:50:26.171Z,11.67
2022-11-14T11:53:08.214Z,11.76
2022-11-14T11:55:44.320Z,11.88
2022-11-14T11:58:46.164Z,12.00
2022-11-14T12:01:18.124Z,12.15
2022-11-14T12:03:51.908Z,12.31
2022-11-14T12:06:29.882Z,12.40
2022-11-14T12:09:42.536Z,12.44
2022-11-14T12:12:26.026Z,12.57
2022-11-14T12:15:39.193Z,12.73
2022-11-14T12:18:39.177Z,12.89
2022-11-14T12:21:25.620Z,12.99
2022-11-14T12:24:34.767Z,13.08
2022-11-14T12:27:24.695Z,13.13
2022-11-14T12:29:55.366Z,13.15
2022-11-14T12:32:53.260Z,13.29
2022-11-14T12:35:25.818Z,13.50
2022-11-14T12:37:56.022Z,13.67
2022-11-14T12:40:29.797Z,13.86
2022-11-14T12:42:59.110Z,14.08
2022-11-14T12:45:42.328Z,14.24
2022-11-14T12:48:22.970Z,14.33
2022-11-14T12:50:51.296Z,14.40
2022-11-14T12:53:37.205Z,14.42
2022-11-14T12:56:15.126Z,14.43
2022-11-14T12:59:05.417Z,14.47
2022-11-14T13:01:36.093Z,14.50
2022-11-14T13:04:26.175Z,14.49
2022-11-14T13:07:34.293Z,14.48
2022-11-14T13:10:16.708Z,14.44
2022-11-14T13:13:36.009Z,14.38
2022-11-14T13:16:23.305Z,14.29
2022-11-14T13:19:30.570Z,14.18
2022-11-14T13:22:14.646Z,14.05
2022-11-14T13:25:05.473Z,13.95
2022-11-14T13:28:05.283Z,13.83
2022-11-14T13:31:07.711Z,13.73
2022-11-14T13:33:45.481Z,13.62
2022-11-14T13:36:35.089Z,13.54
2022-11-14T13:39:15.289Z,13.45
2022-11-14T13:42:32.320Z,13.36
2022-11-14T13:45:25.927Z,13.23
2022-11-14T13:48:11.130Z,13.08
2022-11-14T13:50:40.681Z,12.95
2022-11-14T13:53:16.029Z,12.89
2022-11-14T13:56:04.530Z,12.82
2022-11-14T13:59:03.380Z,12.76
2022-11-14T14:01:59.573Z,12.68
2022-11-14T14:04:45.158Z,12.60
2022-11-14T14:07:51.102Z,12.56
2022-11-14T14:11:00.917Z,12.48
2022-11-14T14:13:55.724Z,12.44
2022-11-14T14:16:52.395Z,12.36
2022-11-14T14:19:43.291Z,12.30
2022-11-14T14:22:27.541Z,12.23
2022-11-14T14:25:07.369Z,12.18
2022-11-14T14:27:56.223Z,12.15
2022-11-14T14:30:24.571Z,12.11
2022-11-14T14:33:07.944Z,12.09
2022-11-14T14:35:40.923Z,12.07
2022-11-14T14:38:21.938Z,12.03
2022-11-14T14:40:50.050Z,11.96
2022-11-14T14:43:35.421Z,11.92
2022-11-14T14:46:06.289Z,11.89
2022-11-14T14:48:36.870Z,11.84
2022-11-14T14:51:07.656Z,11.80
2022-11-14T14:53:36.950Z,11.75
2022-11-14T14:56:25.027Z,11.71
2022-11-14T14:58:53.121Z,11.66
2022-11-14T15:01:39.640Z,11.62
2022-11-14T15:04:14.143Z,11.56
2022-11-14T15:06:46.625Z,11.51
2022-11-14T15:09:29.897Z,11.46
2022-11-14T15:12:00.542Z,11.41
2022-11-14T15:14:35.963Z,11.35
2022-11-14T15:17:04.446Z,11.29
2022-11-14T15:19:45.420Z,11.25
2022-11-14T15:22:28.099Z,11.20
2022-11-14T15:25:14.842Z,11.11
2022-11-14T15:27:52.257Z,11.01
2022-11-14T15:30:31.453Z,10.92
2022-11-14T15:33:05.706Z,10.85
2022-11-14T15:35:38.238Z,10.77
2022-11-14T15:38:37.080Z,10.70
2022-11-14T15:41:24.454Z,10.63
2022-11-14T15:43:55.424Z,10.54
2022-11-14T15:46:38.012Z,10.47
2022-11-14T15:49:14.691Z,10.39
2022-11-14T15:52:03.880Z,10.32
2022-11-14T15:54:40.410Z,10.25
2022-11-14T15:57:17.417Z,10.18
2022-11-14T15:59:45.592Z,10.11
2022-11-14T16:02:45.971Z,10.03
2022-11-14T16:05:17.663Z,9.95
2022-11-14T16:07:51.167Z,9.88
2022-11-14T16:10:27.750Z,9.82
2022-11-14T16:12:56.154Z,9.75
2022-11-14T16:15:24.502Z,9.70
2022-11-14T16:17:52.374Z,9.63
2022-11-14T16:20:27.403Z,9.57
2022-11-14T16:22:56.704Z,9.51
2022-11-14T16:25:27.763Z,9.45
2022-11-14T16:27:55.859Z,9.39
2022-11-14T16:30:29.084Z,9.34
2022-11-14T16:32:57.161Z,9.30
2022-11-14T16:35:27.093Z,9.22
2022-11-14T16:37:59.493Z,9.14
2022-11-14T16:40:28.901Z,9.08
2022-11-14T16:42:59.615Z,9.01
2022-11-14T16:45:28.408Z,8.96
2022-11-14T16:47:56.467Z,8.94
2022-11-14T16:50:24.567Z,8.91
2022-11-14T16:52:59.410Z,8.87
2022-11-14T16:55:27.595Z,8.84
2022-11-14T16:57:57.448Z,8.81
2022-11-14T17:00:25.606Z,8.78
2022-11-14T17:03:00.004Z,8.75
2022-11-14T17:05:31.422Z,8.70
2022-11-14T17:07:59.608Z,8.67
2022-11-14T17:10:27.649Z,8.64
2022-11-14T17:12:55.666Z,8.60
2022-11-14T17:15:23.572Z,8.58
2022-11-14T17:17:51.674Z,8.54
2022-11-14T17:20:19.699Z,8.51
2022-11-14T17:22:47.630Z,8.48
2022-11-14T17:25:15.534Z,8.44
2022-11-14T17:27:43.327Z,8.41
2022-11-14T17:30:15.062Z,8.38
2022-11-14T17:32:42.962Z,8.34
2022-11-14T17:35:11.055Z,8.32
2022-11-14T17:37:39.379Z,8.29
2022-11-14T17:40:14.217Z,8.26
2022-11-14T17:42:43.338Z,8.23
2022-11-14T17:45:14.101Z,8.20
2022-11-14T17:47:42.286Z,8.17
2022-11-14T17:50:12.987Z,8.15
2022-11-14T17:52:43.198Z,8.12
2022-11-14T17:55:14.284Z,8.09
2022-11-14T17:57:42.333Z,8.07
2022-11-14T18:00:10.944Z,8.03
2022-11-14T18:02:38.935Z,8.00
2022-11-14T18:05:07.543Z,7.97
2022-11-14T18:07:35.595Z,7.95
2022-11-14T18:10:03.923Z,7.92
2022-11-14T18:12:34.063Z,7.89
2022-11-14T18:15:02.246Z,7.86
2022-11-14T18:17:34.360Z,7.83
2022-11-14T18:20:04.587Z,7.81
2022-11-14T18:22:32.423Z,7.78
2022-11-14T18:25:07.510Z,7.77
2022-11-14T18:27:36.582Z,7.74
2022-11-14T18:30:20.150Z,7.71
2022-11-14T18:32:56.376Z,7.68
2022-11-14T18:35:25.984Z,7.65
2022-11-14T18:37:54.200Z,7.62
2022-11-14T18:40:22.425Z,7.60
2022-11-14T18:42:50.508Z,7.57
2022-11-14T18:45:18.678Z,7.55
2022-11-14T18:47:46.775Z,7.52
2022-11-14T18:50:15.030Z,7.50
2022-11-14T18:52:43.063Z,7.48
2022-11-14T18:55:11.229Z,7.44
2022-11-14T18:57:40.940Z,7.42
2022-11-14T19:00:09.960Z,7.40
2022-11-14T19:02:40.412Z,7.37
2022-11-14T19:05:08.809Z,7.33
2022-11-14T19:07:38.787Z,7.32
2022-11-14T19:10:07.680Z,7.29
2022-11-14T19:12:35.785Z,7.27
2022-11-14T19:15:05.628Z,7.25
2022-11-14T19:17:33.880Z,7.23
2022-11-14T19:20:01.913Z,7.20
2022-11-14T19:22:30.001Z,7.17
2022-11-14T19:24:59.173Z,7.14
2022-11-14T19:27:27.641Z,7.12
2022-11-14T19:29:55.965Z,7.10
2022-11-14T19:32:26.883Z,7.07
2022-11-14T19:34:55.061Z,7.05
2022-11-14T19:37:23.193Z,7.04
2022-11-14T19:39:55.479Z,7.01
2022-11-14T19:42:23.643Z,7.00
2022-11-14T19:44:52.677Z,6.98
2022-11-14T19:47:20.932Z,6.97
2022-11-14T19:49:49.756Z,6.95
2022-11-14T19:52:18.147Z,6.93
2022-11-14T19:54:49.265Z,6.92
2022-11-14T19:57:17.195Z,6.92
2022-11-14T19:59:45.027Z,6.89
2022-11-14T20:02:14.086Z,6.88
2022-11-14T20:04:43.655Z,6.86
2022-11-14T20:07:11.632Z,6.85
2022-11-14T20:09:42.181Z,6.84
2022-11-14T20:12:10.075Z,6.82
2022-11-14T20:14:41.318Z,6.81
2022-11-14T20:17:09.438Z,6.80
2022-11-14T20:19:41.826Z,6.80
2022-11-14T20:22:12.599Z,6.79
2022-11-14T20:24:40.687Z,6.78
2022-11-14T20:27:13.943Z,6.77
2022-11-14T20:29:41.985Z,6.75
2022-11-14T20:32:15.731Z,6.73
2022-11-14T20:34:44.071Z,6.71
2022-11-14T20:37:12.245Z,6.70
2022-11-14T20:39:40.861Z,6.68
2022-11-14T20:42:08.851Z,6.66
2022-11-14T20:44:36.710Z,6.64
2022-11-14T20:47:09.740Z,6.63
2022-11-14T20:49:38.913Z,6.60
2022-11-14T20:52:07.000Z,6.58
2022-11-14T20:54:34.846Z,6.57
2022-11-14T20:57:02.835Z,6.57
2022-11-14T20:59:30.694Z,6.55
2022-11-14T21:01:58.705Z,6.54
2022-11-14T21:04:26.537Z,6.51
2022-11-14T21:06:54.380Z,6.50
2022-11-14T21:09:22.191Z,6.49
2022-11-14T21:11:49.967Z,6.47
2022-11-14T21:14:17.855Z,6.46
2022-11-14T21:16:45.768Z,6.45
2022-11-14T21:19:13.787Z,6.43
2022-11-14T21:21:41.571Z,6.43
2022-11-14T21:24:09.533Z,6.42
2022-11-14T21:26:39.813Z,6.41
2022-11-14T21:29:14.504Z,6.40
2022-11-14T21:31:45.738Z,6.40
2022-11-14T21:34:18.147Z,6.38
2022-11-14T21:36:48.453Z,6.37
2022-11-14T21:39:19.864Z,6.36
2022-11-14T21:41:53.690Z,6.36
2022-11-14T21:44:22.318Z,6.34
2022-11-14T21:46:53.227Z,6.34
2022-11-14T21:49:21.752Z,6.32
2022-11-14T21:51:49.911Z,6.31
2022-11-14T21:54:17.899Z,6.30
2022-11-14T21:56:49.092Z,6.27
2022-11-14T21:59:18.963Z,6.26
2022-11-14T22:02:12.635Z,6.24
2022-11-14T22:04:43.275Z,6.22
2022-11-14T22:07:13.647Z,6.20
2022-11-14T22:09:45.367Z,6.18
2022-11-14T22:12:13.715Z,6.16
2022-11-14T22:14:44.094Z,6.14
2022-11-14T22:17:11.944Z,6.11
2022-11-14T22:19:39.789Z,6.09
2022-11-14T22:22:07.915Z,6.07
2022-11-14T22:24:35.790Z,6.04
2022-11-14T22:27:03.851Z,6.02
2022-11-14T22:29:31.637Z,6.00
2022-11-14T22:31:59.456Z,5.98
2022-11-14T22:34:27.463Z,5.97
2022-11-14T22:36:55.231Z,5.95
2022-11-14T22:39:23.025Z,5.93
2022-11-14T22:41:50.842Z,5.91
2022-11-14T22:44:18.734Z,5.90
2022-11-14T22:46:46.961Z,5.88
2022-11-14T22:49:19.737Z,5.86
2022-11-14T22:51:48.732Z,5.85
2022-11-14T22:54:16.669Z,5.83
2022-11-14T22:56:44.518Z,5.80
2022-11-14T22:59:12.487Z,5.78
2022-11-14T23:01:40.306Z,5.77
2022-11-14T23:04:09.281Z,5.75
2022-11-14T23:06:37.132Z,5.74
2022-11-14T23:09:05.223Z,5.72
2022-11-14T23:11:33.657Z,5.69
2022-11-14T23:14:01.542Z,5.66
2022-11-14T23:16:32.315Z,5.64
2022-11-14T23:19:02.736Z,5.62
2022-11-14T23:21:35.435Z,5.59
2022-11-14T23:24:08.687Z,5.56
2022-11-14T23:26:36.517Z,5.55
2022-11-14T23:29:04.308Z,5.52
2022-11-14T23:31:32.136Z,5.49
2022-11-14T23:33:59.989Z,5.46
2022-11-14T23:36:27.932Z,5.43
2022-11-14T23:38:56.005Z,5.40
2022-11-14T23:41:27.564Z,5.37
2022-11-14T23:43:55.312Z,5.35
2022-11-14T23:46:23.111Z,5.33
2022-11-14T23:48:53.319Z,5.30
2022-11-14T23:51:21.226Z,5.28
2022-11-14T23:53:49.147Z,5.27
2022-11-14T23:56:17.106Z,5.24
2022-11-14T23:58:45.086Z,5.22
